createdAt,value
2018-02-24T00:00:00.807Z,99333.35
2018-02-24T00:02:28.684Z,99339.99
2018-02-24T00:04:56.592Z,99331.92
2018-02-24T00:07:24.896Z,99339.05
2018-02-24T00:09:52.672Z,99341.64
2018-02-24T00:12:20.261Z,99340.45
2018-02-24T00:14:47.831Z,99325.34
2018-02-24T00:17:15.738Z,99332.03
2018-02-24T00:19:43.529Z,99324.34
2018-02-24T00:22:11.152Z,99338.97
2018-02-24T00:24:38.724Z,99343.14
2018-02-24T00:27:06.270Z,99347.11
2018-02-24T00:29:33.918Z,99333.37
2018-02-24T00:32:01.807Z,99343.83
2018-02-24T00:34:29.542Z,99337.96
2018-02-24T00:36:57.197Z,99344.31
2018-02-24T00:39:25.184Z,99334.62
2018-02-24T00:41:52.788Z,99339.80
2018-02-24T00:44:20.675Z,99345.99
2018-02-24T00:46:48.350Z,99343.67
2018-02-24T00:49:16.051Z,99335.17
2018-02-24T00:51:44.131Z,99334.75
2018-02-24T00:54:12.001Z,99346.80
2018-02-24T00:56:39.612Z,99349.97
2018-02-24T00:59:07.172Z,99350.71
2018-02-24T01:01:34.775Z,99357.91
2018-02-24T01:04:02.550Z,99362.72
2018-02-24T01:06:30.413Z,99366.58
2018-02-24T01:09:00.305Z,99364.78
2018-02-24T01:11:29.405Z,99361.53
2018-02-24T01:13:57.014Z,99358.22
2018-02-24T01:16:24.638Z,99361.39
2018-02-24T01:18:52.231Z,99359.02
2018-02-24T01:21:19.779Z,99352.71
2018-02-24T01:23:47.770Z,99359.45
2018-02-24T01:26:15.349Z,99361.61
2018-02-24T01:28:43.501Z,99356.75
2018-02-24T01:31:11.223Z,99355.13
2018-02-24T01:33:38.984Z,99355.77
2018-02-24T01:36:06.537Z,99356.99
2018-02-24T01:38:34.130Z,99362.84
2018-02-24T01:41:01.897Z,99364.50
2018-02-24T01:43:29.461Z,99361.45
2018-02-24T01:45:57.047Z,99372.44
2018-02-24T01:48:25.463Z,99354.21
2018-02-24T01:50:53.110Z,99356.77
2018-02-24T01:53:20.683Z,99358.63
2018-02-24T01:55:48.314Z,99356.29
2018-02-24T01:58:15.862Z,99345.55
2018-02-24T02:00:43.477Z,99353.46
2018-02-24T02:03:11.066Z,99356.64
2018-02-24T02:05:38.666Z,99341.88
2018-02-24T02:08:06.221Z,99342.81
2018-02-24T02:10:33.772Z,99340.98
2018-02-24T02:13:01.338Z,99331.58
2018-02-24T02:15:28.898Z,99335.46
2018-02-24T02:17:56.464Z,99338.41
2018-02-24T02:20:23.987Z,99340.98
2018-02-24T02:22:51.580Z,99334.59
2018-02-24T02:25:19.136Z,99335.45
2018-02-24T02:27:46.706Z,99317.06
2018-02-24T02:30:14.252Z,99322.17
2018-02-24T02:32:41.817Z,99334.08
2018-02-24T02:35:09.357Z,99335.51
2018-02-24T02:37:36.916Z,99323.28
2018-02-24T02:40:04.483Z,99336.27
2018-02-24T02:42:32.095Z,99330.84
2018-02-24T02:44:59.706Z,99327.91
2018-02-24T02:47:27.252Z,99327.44
2018-02-24T02:49:55.759Z,99318.38
2018-02-24T02:52:23.335Z,99312.20
2018-02-24T02:54:51.168Z,99316.83
2018-02-24T02:57:18.781Z,99315.48
2018-02-24T02:59:46.662Z,99298.31
2018-02-24T03:02:14.282Z,99310.44
2018-02-24T03:04:41.929Z,99295.41
2018-02-24T03:07:09.939Z,99295.95
2018-02-24T03:09:37.557Z,99298.15
2018-02-24T03:12:05.171Z,99296.37
2018-02-24T03:14:32.836Z,99308.72
2018-02-24T03:17:00.625Z,99300.67
2018-02-24T03:19:28.255Z,99298.47
2018-02-24T03:21:55.953Z,99293.46
2018-02-24T03:24:23.572Z,99293.08
2018-02-24T03:26:51.197Z,99286.54
2018-02-24T03:29:19.000Z,99289.12
2018-02-24T03:31:46.693Z,99290.56
2018-02-24T03:34:14.263Z,99290.41
2018-02-24T03:36:41.985Z,99286.53
2018-02-24T03:39:09.861Z,99299.20
2018-02-24T03:41:37.715Z,99308.41
2018-02-24T03:44:05.856Z,99287.48
2018-02-24T03:46:33.728Z,99292.16
2018-02-24T03:49:01.495Z,99299.61
2018-02-24T03:51:31.468Z,99294.30
2018-02-24T03:53:59.111Z,99293.44
2018-02-24T03:56:27.270Z,99304.20
2018-02-24T03:58:55.023Z,99299.86
2018-02-24T04:01:22.595Z,99304.59
2018-02-24T04:03:50.166Z,99304.20
2018-02-24T04:06:17.728Z,99299.63
2018-02-24T04:08:45.556Z,99310.28
2018-02-24T04:11:13.157Z,99314.97
2018-02-24T04:13:40.777Z,99309.00
2018-02-24T04:16:08.756Z,99312.90
2018-02-24T04:18:36.293Z,99306.81
2018-02-24T04:21:03.994Z,99305.57
2018-02-24T04:23:31.698Z,99308.15
2018-02-24T04:25:59.396Z,99313.27
2018-02-24T04:28:27.392Z,99322.59
2018-02-24T04:30:55.465Z,99318.96
2018-02-24T04:33:23.245Z,99317.59
2018-02-24T04:35:51.123Z,99318.02
2018-02-24T04:38:19.027Z,99317.56
2018-02-24T04:40:46.975Z,99329.69
2018-02-24T04:43:14.603Z,99317.65
2018-02-24T04:45:42.141Z,99324.56
2018-02-24T04:48:09.877Z,99330.11
2018-02-24T04:50:37.473Z,99317.27
2018-02-24T04:53:05.084Z,99330.48
2018-02-24T04:55:32.708Z,99351.09
2018-02-24T04:58:00.312Z,99344.23
2018-02-24T05:00:28.220Z,99346.46
2018-02-24T05:02:55.779Z,99357.94
2018-02-24T05:05:23.496Z,99342.10
2018-02-24T05:07:51.370Z,99354.17
2018-02-24T05:10:18.944Z,99357.64
2018-02-24T05:12:46.498Z,99352.03
2018-02-24T05:15:14.089Z,99357.55
2018-02-24T05:17:41.629Z,99346.50
2018-02-24T05:20:09.255Z,99355.84
2018-02-24T05:22:36.791Z,99355.02
2018-02-24T05:25:04.616Z,99350.71
2018-02-24T05:27:32.328Z,99351.58
2018-02-24T05:29:59.883Z,99363.22
2018-02-24T05:32:31.920Z,99362.77
2018-02-24T05:34:59.935Z,99366.25
2018-02-24T05:37:30.951Z,99369.19
2018-02-24T05:40:00.066Z,99374.83
2018-02-24T05:42:31.053Z,99339.73
2018-02-24T05:44:59.446Z,99384.95
2018-02-24T05:47:27.085Z,99376.47
2018-02-24T05:49:54.763Z,99392.28
2018-02-24T05:52:22.352Z,99392.73
2018-02-24T05:54:49.942Z,99394.91
2018-02-24T05:57:17.525Z,99402.61
2018-02-24T05:59:45.090Z,99398.77
2018-02-24T06:02:12.629Z,99405.19
2018-02-24T06:04:40.308Z,99420.17
2018-02-24T06:07:07.932Z,99405.65
2018-02-24T06:09:35.643Z,99407.37
2018-02-24T06:12:03.202Z,99414.13
2018-02-24T06:14:30.841Z,99402.14
2018-02-24T06:16:59.220Z,99415.86
2018-02-24T06:19:26.899Z,99409.08
2018-02-24T06:21:54.568Z,99422.78
2018-02-24T06:24:22.126Z,99407.80
2018-02-24T06:26:49.788Z,99418.05
2018-02-24T06:29:17.356Z,99430.84
2018-02-24T06:31:44.928Z,99412.52
2018-02-24T06:34:12.823Z,99423.59
2018-02-24T06:36:40.641Z,99429.58
2018-02-24T06:39:08.313Z,99431.30
2018-02-24T06:41:36.515Z,99430.48
2018-02-24T06:44:05.071Z,99436.45
2018-02-24T06:46:32.722Z,99435.59
2018-02-24T06:49:00.322Z,99437.31
2018-02-24T06:51:28.147Z,99456.11
2018-02-24T06:53:56.217Z,99460.36
2018-02-24T06:56:23.884Z,99455.25
2018-02-24T06:58:51.632Z,99463.77
2018-02-24T07:01:19.409Z,99464.23
2018-02-24T07:03:47.183Z,99459.95
2018-02-24T07:06:15.058Z,99452.62
2018-02-24T07:08:42.814Z,99463.79
2018-02-24T07:11:10.469Z,99474.91
2018-02-24T07:13:38.392Z,99457.80
2018-02-24T07:16:07.326Z,99472.31
2018-02-24T07:18:35.923Z,99458.20
2018-02-24T07:21:04.775Z,99470.60
2018-02-24T07:23:32.857Z,99477.00
2018-02-24T07:26:03.544Z,99451.83
2018-02-24T07:28:31.646Z,99461.20
2018-02-24T07:33:33.829Z,99475.30
2018-02-24T07:36:01.418Z,99478.72
2018-02-24T07:38:29.901Z,99482.98
2018-02-24T07:40:57.452Z,99479.51
2018-02-24T07:43:26.425Z,99475.69
2018-02-24T07:45:54.124Z,99487.22
2018-02-24T07:48:21.707Z,99475.23
2018-02-24T07:50:49.316Z,99473.11
2018-02-24T07:53:19.940Z,99472.23
2018-02-24T07:55:47.806Z,99471.36
2018-02-24T07:58:15.337Z,99471.32
2018-02-24T08:00:42.926Z,99461.51
2018-02-24T08:03:10.453Z,99479.03
2018-02-24T08:05:38.023Z,99469.64
2018-02-24T08:08:05.800Z,99476.47
2018-02-24T08:10:33.421Z,99483.29
2018-02-24T08:13:01.435Z,99462.31
2018-02-24T08:15:30.255Z,99472.99
2018-02-24T08:17:58.464Z,99476.38
2018-02-24T08:20:26.570Z,99479.38
2018-02-24T08:22:54.652Z,99479.83
2018-02-24T08:25:23.227Z,99478.48
2018-02-24T08:27:52.716Z,99468.64
2018-02-24T08:30:21.037Z,99484.05
2018-02-24T08:32:49.354Z,99500.70
2018-02-24T08:35:18.259Z,99493.35
2018-02-24T08:37:46.533Z,99490.77
2018-02-24T08:40:16.678Z,99499.28
2018-02-24T08:42:44.694Z,99497.47
2018-02-24T08:45:13.126Z,99500.06
2018-02-24T08:47:43.278Z,99501.30
2018-02-24T08:50:14.535Z,99501.66
2018-02-24T08:52:42.868Z,99498.16
2018-02-24T08:55:11.886Z,99499.86
2018-02-24T08:57:41.623Z,99509.22
2018-02-24T09:00:09.405Z,99492.51
2018-02-24T09:02:37.443Z,99490.76
2018-02-24T09:05:06.173Z,99507.72
2018-02-24T09:07:33.803Z,99500.08
2018-02-24T09:10:03.081Z,99498.77
2018-02-24T09:12:32.278Z,99485.84
2018-02-24T09:15:05.548Z,99502.47
2018-02-24T09:17:33.544Z,99486.64
2018-02-24T09:20:01.510Z,99512.21
2018-02-24T09:22:29.171Z,99491.31
2018-02-24T09:24:56.776Z,99495.53
2018-02-24T09:27:24.518Z,99505.64
2018-02-24T09:29:52.161Z,99498.43
2018-02-24T09:32:19.954Z,99494.80
2018-02-24T09:34:47.590Z,99494.31
2018-02-24T09:37:15.180Z,99491.66
2018-02-24T09:39:43.215Z,99487.75
2018-02-24T09:42:10.794Z,99495.44
2018-02-24T09:44:38.411Z,99468.86
2018-02-24T09:47:06.053Z,99469.98
2018-02-24T09:49:33.962Z,99477.58
2018-02-24T09:52:01.913Z,99452.63
2018-02-24T09:54:30.319Z,99469.55
2018-02-24T09:56:59.592Z,99461.14
2018-02-24T09:59:27.543Z,99468.28
2018-02-24T10:01:55.260Z,99458.69
2018-02-24T10:04:23.217Z,99463.45
2018-02-24T10:06:52.809Z,99469.29
2018-02-24T10:09:20.833Z,99471.30
2018-02-24T10:11:48.954Z,99465.95
2018-02-24T10:14:16.928Z,99467.92
2018-02-24T10:16:45.076Z,99469.90
2018-02-24T10:19:12.668Z,99475.22
2018-02-24T10:21:42.270Z,99466.27
2018-02-24T10:24:10.434Z,99465.76
2018-02-24T10:26:39.800Z,99454.11
2018-02-24T10:29:08.559Z,99453.61
2018-02-24T10:31:36.374Z,99462.90
2018-02-24T10:34:05.458Z,99445.23
2018-02-24T10:36:33.276Z,99451.31
2018-02-24T10:39:02.196Z,99458.70
2018-02-24T10:41:29.803Z,99448.79
2018-02-24T10:43:57.646Z,99459.49
2018-02-24T10:46:25.357Z,99449.44
2018-02-24T10:49:04.783Z,99455.69
2018-02-24T10:51:33.583Z,99443.89
2018-02-24T10:54:01.305Z,99449.74
2018-02-24T10:56:32.981Z,99449.19
2018-02-24T10:59:01.257Z,99434.27
2018-02-24T11:01:29.242Z,99432.91
2018-02-24T11:03:57.463Z,99436.55
2018-02-24T11:06:25.883Z,99437.37
2018-02-24T11:08:53.515Z,99439.29
2018-02-24T11:11:21.209Z,99422.98
2018-02-24T11:13:48.924Z,99432.58
2018-02-24T11:16:16.660Z,99422.45
2018-02-24T11:18:45.380Z,99435.06
2018-02-24T11:21:14.072Z,99432.58
2018-02-24T11:23:42.248Z,99420.13
2018-02-24T11:26:10.100Z,99416.63
2018-02-24T11:28:38.567Z,99417.34
2018-02-24T11:31:06.292Z,99415.83
2018-02-24T11:33:33.852Z,99413.27
2018-02-24T11:36:02.650Z,99402.86
2018-02-24T11:38:31.705Z,99418.71
2018-02-24T11:40:59.498Z,99415.08
2018-02-24T11:43:27.101Z,99433.27
2018-02-24T11:45:54.718Z,99435.73
2018-02-24T11:48:22.295Z,99421.17
2018-02-24T11:50:49.840Z,99431.63
2018-02-24T11:53:17.466Z,99429.72
2018-02-24T11:55:45.024Z,99440.47
2018-02-24T11:58:13.511Z,99430.16
2018-02-24T12:00:42.493Z,99433.90
2018-02-24T12:03:10.073Z,99441.33
2018-02-24T12:05:37.702Z,99448.31
2018-02-24T12:08:05.496Z,99443.58
2018-02-24T12:10:36.858Z,99446.56
2018-02-24T12:13:04.673Z,99436.08
2018-02-24T12:15:32.950Z,99444.39
2018-02-24T12:18:02.526Z,99445.03
2018-02-24T12:20:34.935Z,99433.34
2018-02-24T12:23:02.827Z,99431.59
2018-02-24T12:25:30.681Z,99428.98
2018-02-24T12:27:58.974Z,99415.70
2018-02-24T12:30:27.611Z,99430.94
2018-02-24T12:32:57.779Z,99427.31
2018-02-24T12:35:28.581Z,99411.53
2018-02-24T12:37:58.170Z,99433.53
2018-02-24T12:40:27.147Z,99429.06
2018-02-24T12:42:57.904Z,99424.54
2018-02-24T12:45:27.324Z,99424.86
2018-02-24T12:47:55.300Z,99432.45
2018-02-24T12:50:23.947Z,99426.55
2018-02-24T12:52:51.562Z,99427.36
2018-02-24T12:55:19.120Z,99417.52
2018-02-24T12:57:46.693Z,99419.06
2018-02-24T13:00:14.212Z,99408.52
2018-02-24T13:02:41.835Z,99418.87
2018-02-24T13:05:09.359Z,99422.76
2018-02-24T13:07:36.896Z,99411.63
2018-02-24T13:10:04.459Z,99415.04
2018-02-24T13:12:32.604Z,99387.38
2018-02-24T13:15:00.319Z,99414.95
2018-02-24T13:17:27.891Z,99415.47
2018-02-24T13:19:56.686Z,99412.06
2018-02-24T13:22:27.748Z,99418.15
2018-02-24T13:24:57.682Z,99414.55
2018-02-24T13:27:26.113Z,99414.19
2018-02-24T13:29:55.265Z,99414.51
2018-02-24T13:32:23.626Z,99413.48
2018-02-24T13:34:55.975Z,99412.20
2018-02-24T13:37:24.036Z,99417.05
2018-02-24T13:39:53.126Z,99415.11
2018-02-24T13:42:22.571Z,99410.77
2018-02-24T13:44:50.457Z,99416.74
2018-02-24T13:47:22.386Z,99405.84
2018-02-24T13:49:51.806Z,99410.89
2018-02-24T13:52:19.560Z,99403.44
2018-02-24T13:54:49.294Z,99414.84
2018-02-24T13:57:19.266Z,99402.61
2018-02-24T13:59:48.419Z,99397.45
2018-02-24T14:02:18.927Z,99403.86
2018-02-24T14:04:48.633Z,99401.48
2018-02-24T14:07:17.389Z,99412.72
2018-02-24T14:09:45.080Z,99414.67
2018-02-24T14:12:15.298Z,99417.33
2018-02-24T14:14:43.129Z,99396.64
2018-02-24T14:17:12.373Z,99395.27
2018-02-24T14:19:40.008Z,99409.50
2018-02-24T14:22:08.196Z,99404.40
2018-02-24T14:24:38.466Z,99409.29
2018-02-24T14:27:06.017Z,99417.76
2018-02-24T14:29:33.528Z,99413.78
2018-02-24T14:32:01.108Z,99408.44
2018-02-24T14:34:32.521Z,99403.64
2018-02-24T14:37:02.206Z,99406.98
2018-02-24T14:39:31.309Z,99411.48
2018-02-24T14:42:01.351Z,99414.25
2018-02-24T14:44:31.210Z,99405.83
2018-02-24T14:47:03.009Z,99400.16
2018-02-24T14:49:31.695Z,99405.17
2018-02-24T14:51:59.871Z,99389.64
2018-02-24T14:54:30.328Z,99405.06
2018-02-24T14:57:01.744Z,99410.27
2018-02-24T14:59:29.847Z,99403.57
2018-02-24T15:01:57.733Z,99409.75
2018-02-24T15:04:27.161Z,99413.84
2018-02-24T15:06:54.762Z,99429.08
2018-02-24T15:09:24.303Z,99424.08
2018-02-24T15:11:54.403Z,99438.05
2018-02-24T15:14:24.502Z,99426.66
2018-02-24T15:16:54.518Z,99424.63
2018-02-24T15:19:23.947Z,99438.22
2018-02-24T15:21:53.051Z,99436.44
2018-02-24T15:24:23.380Z,99448.88
2018-02-24T15:26:52.778Z,99441.39
2018-02-24T15:29:23.648Z,99433.65
2018-02-24T15:31:52.452Z,99432.89
2018-02-24T15:34:22.732Z,99440.08
2018-02-24T15:36:53.737Z,99441.09
2018-02-24T15:39:24.176Z,99454.14
2018-02-24T15:41:52.639Z,99455.02
2018-02-24T15:44:21.033Z,99455.20
2018-02-24T15:46:50.028Z,99467.72
2018-02-24T15:49:21.002Z,99468.41
2018-02-24T15:51:48.753Z,99463.42
2018-02-24T15:54:16.323Z,99470.23
2018-02-24T15:56:44.234Z,99471.36
2018-02-24T15:59:11.838Z,99479.06
2018-02-24T16:01:39.375Z,99463.88
2018-02-24T16:04:06.906Z,99482.20
2018-02-24T16:06:34.456Z,99488.45
2018-02-24T16:09:05.137Z,99479.90
2018-02-24T16:11:32.699Z,99474.56
2018-02-24T16:14:00.253Z,99483.37
2018-02-24T16:16:27.815Z,99480.78
2018-02-24T16:18:55.371Z,99495.70
2018-02-24T16:21:22.993Z,99485.66
2018-02-24T16:23:50.525Z,99499.62
2018-02-24T16:26:18.055Z,99494.41
2018-02-24T16:28:45.615Z,99499.80
2018-02-24T16:31:13.140Z,99509.86
2018-02-24T16:33:40.700Z,99516.01
2018-02-24T16:36:08.257Z,99514.92
2018-02-24T16:38:35.810Z,99524.07
2018-02-24T16:41:03.339Z,99523.34
2018-02-24T16:43:30.918Z,99536.05
2018-02-24T16:45:58.440Z,99525.38
2018-02-24T16:48:26.004Z,99530.86
2018-02-24T16:50:53.523Z,99536.27
2018-02-24T16:53:21.084Z,99530.31
2018-02-24T16:55:48.639Z,99540.58
2018-02-24T16:58:16.210Z,99532.67
2018-02-24T17:00:43.783Z,99546.36
2018-02-24T17:03:11.311Z,99553.27
2018-02-24T17:05:38.864Z,99558.38
2018-02-24T17:08:06.443Z,99548.16
2018-02-24T17:10:34.807Z,99561.53
2018-02-24T17:13:02.346Z,99560.24
2018-02-24T17:15:29.954Z,99544.34
2018-02-24T17:17:57.480Z,99562.23
2018-02-24T17:20:25.070Z,99563.84
2018-02-24T17:22:52.612Z,99562.27
2018-02-24T17:25:20.175Z,99564.56
2018-02-24T17:27:49.253Z,99585.20
2018-02-24T17:30:20.252Z,99586.53
2018-02-24T17:32:49.755Z,99595.69
2018-02-24T17:35:19.174Z,99609.66
2018-02-24T17:37:48.419Z,99609.72
2018-02-24T17:40:18.445Z,99602.95
2018-02-24T17:42:49.031Z,99615.41
2018-02-24T17:45:19.479Z,99618.23
2018-02-24T17:47:47.228Z,99612.19
2018-02-24T17:50:16.399Z,99626.50
2018-02-24T17:52:45.254Z,99629.61
2018-02-24T17:55:12.911Z,99632.15
2018-02-24T17:57:44.530Z,99629.64
2018-02-24T18:00:15.718Z,99625.00
2018-02-24T18:02:43.423Z,99653.95
2018-02-24T18:05:14.574Z,99636.66
2018-02-24T18:07:44.483Z,99643.51
2018-02-24T18:10:14.649Z,99644.11
2018-02-24T18:12:44.758Z,99649.13
2018-02-24T18:15:14.521Z,99673.34
2018-02-24T18:17:43.503Z,99653.72
2018-02-24T18:20:11.704Z,99659.36
2018-02-24T18:22:43.177Z,99665.26
2018-02-24T18:25:12.604Z,99656.67
2018-02-24T18:27:41.763Z,99674.95
2018-02-24T18:30:09.499Z,99666.76
2018-02-24T18:32:37.364Z,99668.56
2018-02-24T18:35:04.919Z,99663.53
2018-02-24T18:37:33.054Z,99670.81
2018-02-24T18:40:01.942Z,99671.03
2018-02-24T18:42:31.648Z,99671.34
2018-02-24T18:45:01.693Z,99654.17
2018-02-24T18:47:32.089Z,99675.59
2018-02-24T18:50:02.168Z,99670.35
2018-02-24T18:52:30.255Z,99666.59
2018-02-24T18:54:57.868Z,99662.48
2018-02-24T18:57:25.911Z,99678.64
2018-02-24T18:59:53.472Z,99679.37
2018-02-24T19:02:20.997Z,99682.69
2018-02-24T19:04:48.895Z,99688.64
2018-02-24T19:07:16.451Z,99676.16
2018-02-24T19:09:44.112Z,99688.63
2018-02-24T19:12:11.655Z,99692.06
2018-02-24T19:14:39.224Z,99684.28
2018-02-24T19:17:08.289Z,99687.06
2018-02-24T19:19:35.895Z,99695.09
2018-02-24T19:22:03.512Z,99693.55
2018-02-24T19:24:31.067Z,99700.77
2018-02-24T19:26:58.843Z,99699.97
2018-02-24T19:29:26.399Z,99694.10
2018-02-24T19:31:54.074Z,99693.61
2018-02-24T19:34:21.625Z,99706.09
2018-02-24T19:36:49.181Z,99713.92
2018-02-24T19:39:16.714Z,99705.74
2018-02-24T19:41:46.576Z,99712.30
2018-02-24T19:44:14.824Z,99706.28
2018-02-24T19:46:42.391Z,99708.33
2018-02-24T19:49:12.804Z,99714.84
2018-02-24T19:51:40.980Z,99658.63
2018-02-24T19:54:08.509Z,99711.89
2018-02-24T19:56:36.060Z,99719.98
2018-02-24T19:59:03.910Z,99710.72
2018-02-24T20:01:32.535Z,99712.11
2018-02-24T20:04:00.623Z,99718.44
2018-02-24T20:06:28.401Z,99715.48
2018-02-24T20:08:59.334Z,99722.73
2018-02-24T20:11:32.540Z,99724.06
2018-02-24T20:14:00.446Z,99737.08
2018-02-24T20:16:28.142Z,99749.57
2018-02-24T20:18:56.616Z,99737.38
2018-02-24T20:21:24.634Z,99733.22
2018-02-24T20:23:59.570Z,99736.29
2018-02-24T20:26:27.885Z,99722.89
2018-02-24T20:28:56.673Z,99722.64
2018-02-24T20:31:34.177Z,99740.19
2018-02-24T20:34:02.051Z,99737.91
2018-02-24T20:36:33.130Z,99738.94
2018-02-24T20:39:02.005Z,99731.47
2018-02-24T20:41:30.936Z,99731.63
2018-02-24T20:43:58.570Z,99734.55
2018-02-24T20:46:26.147Z,99734.72
2018-02-24T20:48:53.705Z,99738.40
2018-02-24T20:51:21.988Z,99734.61
2018-02-24T20:53:49.721Z,99736.12
2018-02-24T20:56:17.614Z,99747.20
2018-02-24T20:58:45.272Z,99749.81
2018-02-24T21:01:14.105Z,99755.03
2018-02-24T21:03:41.675Z,99743.77
2018-02-24T21:06:09.791Z,99751.89
2018-02-24T21:08:37.380Z,99742.45
2018-02-24T21:11:05.624Z,99749.31
2018-02-24T21:13:33.496Z,99754.89
2018-02-24T21:16:03.823Z,99749.70
2018-02-24T21:18:31.975Z,99758.55
2018-02-24T21:21:00.909Z,99744.85
2018-02-24T21:23:28.628Z,99755.39
2018-02-24T21:25:56.196Z,99753.28
2018-02-24T21:28:23.722Z,99766.09
2018-02-24T21:30:51.308Z,99759.68
2018-02-24T21:33:20.896Z,99767.95
2018-02-24T21:35:48.486Z,99760.66
2018-02-24T21:38:16.044Z,99765.34
2018-02-24T21:40:43.596Z,99761.19
2018-02-24T21:43:11.160Z,99761.09
2018-02-24T21:45:38.694Z,99779.55
2018-02-24T21:48:06.268Z,99758.17
2018-02-24T21:50:36.550Z,99769.34
2018-02-24T21:53:07.363Z,99776.17
2018-02-24T21:55:37.802Z,99768.52
2018-02-24T21:58:09.484Z,99772.28
2018-02-24T22:00:37.231Z,99775.28
2018-02-24T22:03:07.290Z,99778.08
2018-02-24T22:05:37.836Z,99786.14
2018-02-24T22:08:05.787Z,99772.89
2018-02-24T22:10:35.924Z,99772.15
2018-02-24T22:13:03.651Z,99767.86
2018-02-24T22:15:32.521Z,99781.84
2018-02-24T22:18:00.508Z,99777.13
2018-02-24T22:20:30.542Z,99777.17
2018-02-24T22:22:58.314Z,99777.63
2018-02-24T22:25:26.820Z,99775.81
2018-02-24T22:27:54.784Z,99770.30
2018-02-24T22:30:24.370Z,99791.84
2018-02-24T22:32:53.058Z,99784.94
2018-02-24T22:35:20.737Z,99781.55
2018-02-24T22:37:49.135Z,99784.90
2018-02-24T22:40:17.894Z,99785.83
2018-02-24T22:42:48.007Z,99786.30
2018-02-24T22:45:17.420Z,99798.31
2018-02-24T22:47:51.552Z,99792.81
2018-02-24T22:50:20.558Z,99797.61
2018-02-24T22:52:48.356Z,99791.96
2018-02-24T22:55:17.961Z,99789.91
2018-02-24T22:57:46.207Z,99791.06
2018-02-24T23:00:16.769Z,99780.01
2018-02-24T23:02:45.022Z,99786.81
2018-02-24T23:05:14.019Z,99786.36
2018-02-24T23:07:42.463Z,99783.33
2018-02-24T23:10:10.953Z,99783.38
2018-02-24T23:12:39.188Z,99780.43
2018-02-24T23:15:08.686Z,99787.70
2018-02-24T23:17:38.003Z,99786.81
2018-02-24T23:20:06.228Z,99777.08
2018-02-24T23:22:36.533Z,99779.59
2018-02-24T23:25:05.808Z,99783.96
2018-02-24T23:27:34.633Z,99787.42
2018-02-24T23:30:03.387Z,99792.46
2018-02-24T23:32:31.970Z,99795.44
2018-02-24T23:35:00.106Z,99794.72
2018-02-24T23:37:31.290Z,99795.89
2018-02-24T23:40:00.436Z,99788.23
2018-02-24T23:42:29.753Z,99797.73
2018-02-24T23:44:58.647Z,99792.16
2018-02-24T23:47:27.766Z,99794.20
2018-02-24T23:49:58.774Z,99795.12
2018-02-24T23:52:26.683Z,99809.78
2018-02-24T23:54:55.244Z,99811.84
2018-02-24T23:57:23.649Z,99794.30
2018-02-24T23:59:51.250Z,99796.44
